Time;durP1;ratioP1;P1;durP2;ratioP2;P2;SDS_P1;SDS_P2;PMS_P1;PMS_P2;Temp;Humidity;BMP_temperature;BMP_pressure;BME280_temperature;BME280_humidity;BME280_pressure;Samples;Min_cycle;Max_cycle;Signal;HPM_P1;HPM_P2
2022/07/11 00:00:15;;;;;;;6.28;0.98;;;14.30;99.90;;;;;;5063047;28;20383;-64
2022/07/11 00:02:42;;;;;;;2.10;0.65;;;14.40;99.90;;;;;;5059305;28;20370;-64
2022/07/11 00:05:10;;;;;;;1.95;0.43;;;14.40;99.90;;;;;;5043675;28;20436;-67
2022/07/11 00:07:38;;;;;;;0.95;0.47;;;14.30;99.90;;;;;;5060723;28;20375;-67
2022/07/11 00:10:06;;;;;;;2.47;1.10;;;14.20;99.90;;;;;;5060293;28;20031;-63
2022/07/11 00:12:34;;;;;;;1.38;0.52;;;14.00;99.90;;;;;;5062528;28;20040;-64
2022/07/11 00:15:01;;;;;;;2.17;0.60;;;13.80;99.90;;;;;;5058274;28;20029;-67
2022/07/11 00:17:28;;;;;;;2.05;0.45;;;13.60;99.90;;;;;;5059307;28;20036;-66
2022/07/11 00:19:55;;;;;;;3.17;1.00;;;13.60;99.90;;;;;;5057257;28;20016;-68
2022/07/11 00:22:22;;;;;;;2.42;1.05;;;13.50;99.90;;;;;;5056382;28;20025;-66
2022/07/11 00:24:50;;;;;;;3.80;0.90;;;13.50;99.90;;;;;;5056732;28;20029;-68
2022/07/11 00:27:17;;;;;;;1.40;0.45;;;13.80;99.90;;;;;;5056967;28;20435;-66
2022/07/11 00:29:44;;;;;;;2.17;0.52;;;14.10;99.90;;;;;;5058433;28;20024;-66
2022/07/11 00:32:12;;;;;;;1.90;0.50;;;14.40;99.90;;;;;;5059711;28;20419;-68
2022/07/11 00:34:39;;;;;;;2.80;1.48;;;14.60;99.90;;;;;;5056060;28;20021;-66
2022/07/11 00:37:06;;;;;;;3.63;2.00;;;14.70;99.90;;;;;;5057999;28;20483;-66
2022/07/11 00:39:33;;;;;;;0.88;0.43;;;14.90;99.90;;;;;;5058696;28;21042;-66
2022/07/11 00:42:00;;;;;;;1.63;0.70;;;15.10;99.90;;;;;;5058515;28;20017;-68
2022/07/11 00:44:27;;;;;;;2.63;0.63;;;15.20;99.90;;;;;;5057376;28;20048;-68
2022/07/11 00:46:55;;;;;;;2.63;0.88;;;15.30;99.90;;;;;;5058964;28;20100;-68
2022/07/11 00:49:22;;;;;;;3.10;0.65;;;15.50;99.90;;;;;;5057113;28;20111;-66
2022/07/11 00:51:49;;;;;;;1.23;0.38;;;15.70;99.90;;;;;;5058097;28;20483;-69
2022/07/11 00:54:19;;;;;;;1.75;0.65;;;15.80;99.90;;;;;;5056763;28;20031;-67
2022/07/11 00:56:46;;;;;;;1.73;0.40;;;16.00;99.90;;;;;;5058225;28;20036;-66
2022/07/11 00:59:15;;;;;;;3.47;0.82;;;16.30;99.90;;;;;;5059841;28;20078;-68
2022/07/11 01:01:43;;;;;;;2.25;0.60;;;16.40;99.90;;;;;;5059626;28;20029;-69
2022/07/11 01:04:10;;;;;;;2.55;0.68;;;16.60;99.90;;;;;;5062308;28;20057;-67
2022/07/11 01:06:37;;;;;;;3.53;0.70;;;16.40;99.90;;;;;;5056896;28;20044;-68
2022/07/11 01:09:04;;;;;;;3.50;1.10;;;16.10;99.90;;;;;;5057619;28;20036;-66
2022/07/11 01:11:31;;;;;;;1.52;0.73;;;15.90;99.90;;;;;;5058144;28;20726;-66
2022/07/11 01:13:58;;;;;;;3.50;0.75;;;15.70;99.90;;;;;;5057125;28;20028;-67
2022/07/11 01:16:25;;;;;;;2.25;0.80;;;15.60;99.90;;;;;;5041138;28;20061;-67
2022/07/11 01:18:55;;;;;;;3.65;0.90;;;15.50;99.90;;;;;;5055500;28;20466;-67
2022/07/11 01:21:35;;;;;;;5.50;1.55;;;15.60;99.90;;;;;;5056866;28;20024;-67
2022/07/11 01:24:03;;;;;;;3.28;0.60;;;15.80;99.90;;;;;;5054030;28;20541;-67
2022/07/11 01:26:32;;;;;;;4.22;0.90;;;16.10;99.90;;;;;;5059039;28;20057;-66
2022/07/11 01:29:12;;;;;;;6.72;1.13;;;16.30;99.90;;;;;;5055199;28;20029;-68
2022/07/11 01:31:43;;;;;;;1.95;0.80;;;16.70;99.90;;;;;;5058192;28;20028;-68
2022/07/11 01:34:11;;;;;;;3.38;0.80;;;16.70;99.90;;;;;;5059664;28;20024;-67
2022/07/11 01:36:39;;;;;;;2.90;0.77;;;16.40;99.90;;;;;;5064297;28;20028;-68
2022/07/11 01:39:06;;;;;;;2.00;0.82;;;16.00;99.90;;;;;;5059443;28;20116;-68
2022/07/11 01:41:33;;;;;;;2.72;0.93;;;15.80;99.90;;;;;;5064630;28;20021;-66
2022/07/11 01:44:01;;;;;;;6.30;1.15;;;15.80;99.90;;;;;;5062931;28;20498;-66
2022/07/11 01:46:28;;;;;;;2.95;1.15;;;16.00;99.90;;;;;;5063233;28;20024;-65
2022/07/11 01:48:55;;;;;;;4.75;1.58;;;16.40;99.90;;;;;;5064567;28;20033;-65
2022/07/11 01:51:24;;;;;;;1.73;0.63;;;16.70;99.90;;;;;;5065288;28;20024;-67
2022/07/11 01:53:52;;;;;;;1.88;1.40;;;16.80;99.90;;;;;;5040373;28;20633;-65
2022/07/11 01:56:20;;;;;;;2.35;0.88;;;16.90;99.90;;;;;;5063019;28;20040;-65
2022/07/11 01:58:47;;;;;;;2.75;0.75;;;17.20;99.90;;;;;;5060743;28;20082;-68
2022/07/11 02:01:14;;;;;;;3.53;1.10;;;17.30;99.90;;;;;;5065145;28;20027;-65
2022/07/11 02:03:42;;;;;;;6.35;2.83;;;17.30;99.90;;;;;;5061808;28;20021;-70
2022/07/11 02:06:09;;;;;;;4.43;2.80;;;17.50;99.90;;;;;;5064172;28;20496;-67
2022/07/11 02:08:36;;;;;;;4.88;1.52;;;17.70;99.90;;;;;;5062016;28;20024;-67
2022/07/11 02:11:04;;;;;;;4.97;1.55;;;17.90;99.90;;;;;;5059329;28;20038;-66
2022/07/11 02:13:31;;;;;;;2.85;0.70;;;17.80;99.90;;;;;;5040241;28;20077;-66
2022/07/11 02:15:58;;;;;;;7.50;3.38;;;17.70;99.90;;;;;;5061531;28;20336;-65
2022/07/11 02:18:25;;;;;;;2.50;1.05;;;17.80;99.90;;;;;;5062100;28;20031;-66
2022/07/11 02:20:52;;;;;;;2.90;0.77;;;17.80;99.90;;;;;;5057801;28;20032;-68
2022/07/11 02:23:20;;;;;;;1.10;0.50;;;17.90;99.90;;;;;;5058138;28;20028;-65
2022/07/11 02:25:48;;;;;;;2.20;0.70;;;18.00;99.90;;;;;;5060439;28;20103;-67
2022/07/11 02:28:16;;;;;;;1.50;0.82;;;18.10;99.90;;;;;;5060224;28;20027;-67
2022/07/11 02:30:45;;;;;;;2.88;0.65;;;17.90;99.90;;;;;;5058336;28;20113;-68
2022/07/11 02:33:15;;;;;;;2.90;0.90;;;17.90;99.90;;;;;;5056420;28;20025;-68
2022/07/11 02:35:44;;;;;;;2.47;0.77;;;17.90;99.90;;;;;;5055380;28;20372;-70
2022/07/11 02:38:11;;;;;;;1.95;0.55;;;17.80;99.90;;;;;;5057751;28;20027;-69
2022/07/11 02:40:38;;;;;;;3.80;0.70;;;17.80;99.90;;;;;;5058977;28;20036;-66
2022/07/11 02:43:06;;;;;;;2.65;0.82;;;17.90;99.90;;;;;;5056677;28;20017;-69
2022/07/11 02:45:33;;;;;;;1.38;0.68;;;17.90;99.90;;;;;;5055137;28;20052;-69
2022/07/11 02:48:00;;;;;;;2.35;0.60;;;17.90;99.90;;;;;;5056433;28;20052;-66
2022/07/11 02:50:27;;;;;;;5.65;2.00;;;18.10;99.90;;;;;;5055576;28;20463;-67
2022/07/11 02:52:54;;;;;;;7.63;3.75;;;18.10;99.90;;;;;;5055824;28;20090;-66
2022/07/11 02:55:22;;;;;;;3.80;1.50;;;18.40;99.90;;;;;;5054394;28;20140;-66
2022/07/11 02:57:49;;;;;;;5.25;1.23;;;18.00;99.90;;;;;;5058252;28;20333;-67
2022/07/11 03:00:18;;;;;;;3.08;0.60;;;18.00;99.90;;;;;;5055509;28;20424;-71
2022/07/11 03:02:46;;;;;;;3.33;1.50;;;18.10;99.90;;;;;;5057591;28;20027;-70
2022/07/11 03:05:13;;;;;;;4.07;1.98;;;18.20;99.90;;;;;;5057001;28;20051;-64
2022/07/11 03:07:40;;;;;;;3.95;1.13;;;18.40;99.90;;;;;;5055814;28;20032;-69
2022/07/11 03:10:07;;;;;;;3.17;0.65;;;18.50;99.90;;;;;;5057254;28;20489;-68
2022/07/11 03:12:34;;;;;;;1.70;0.60;;;18.20;99.90;;;;;;5060529;28;20035;-67
2022/07/11 03:15:01;;;;;;;2.92;0.80;;;17.90;99.70;;;;;;5059741;28;20032;-66
2022/07/11 03:17:29;;;;;;;1.95;0.63;;;17.50;99.80;;;;;;5055105;28;20051;-68
2022/07/11 03:19:56;;;;;;;3.72;0.80;;;17.30;99.90;;;;;;5054426;28;20017;-66
2022/07/11 03:22:23;;;;;;;3.28;0.63;;;17.20;99.90;;;;;;5054828;28;20081;-67
2022/07/11 03:24:50;;;;;;;3.97;0.50;;;17.20;99.90;;;;;;5058286;28;20570;-66
2022/07/11 03:27:18;;;;;;;6.20;1.10;;;17.30;99.90;;;;;;5056855;28;20045;-66
2022/07/11 03:29:45;;;;;;;3.30;0.63;;;17.70;99.90;;;;;;5048869;28;20091;-68
2022/07/11 03:32:12;;;;;;;3.95;0.65;;;18.10;99.90;;;;;;5053910;28;20273;-69
2022/07/11 03:34:40;;;;;;;2.00;0.50;;;18.40;99.90;;;;;;5054157;28;20095;-74
2022/07/11 03:37:07;;;;;;;2.80;0.77;;;18.80;99.90;;;;;;5055830;28;20100;-69
2022/07/11 03:39:34;;;;;;;3.13;1.02;;;19.10;99.40;;;;;;5065904;28;20032;-68
2022/07/11 03:42:01;;;;;;;2.28;0.95;;;18.90;99.90;;;;;;5070070;28;20100;-69
2022/07/11 03:44:30;;;;;;;4.72;2.08;;;18.70;99.90;;;;;;5069112;28;20020;-69
2022/07/11 03:46:57;;;;;;;2.92;1.05;;;18.30;99.90;;;;;;5069313;28;20115;-67
2022/07/11 03:49:25;;;;;;;1.38;0.50;;;17.90;99.90;;;;;;5070148;28;20020;-65
2022/07/11 03:51:53;;;;;;;1.60;0.65;;;17.60;99.90;;;;;;5073451;28;20020;-69
2022/07/11 03:54:20;;;;;;;3.67;1.30;;;17.30;99.90;;;;;;5071396;28;20086;-68
2022/07/11 03:56:47;;;;;;;4.15;1.00;;;17.00;99.90;;;;;;5120266;22;20062;-68
2022/07/11 03:59:15;;;;;;;1.48;0.93;;;16.70;99.90;;;;;;5073959;28;20127;-64
2022/07/11 04:01:42;;;;;;;6.07;1.00;;;16.40;99.90;;;;;;5070751;28;20548;-68
2022/07/11 04:04:09;;;;;;;2.35;0.75;;;16.20;99.90;;;;;;5071058;28;20526;-68
2022/07/11 04:06:36;;;;;;;4.97;1.60;;;16.00;99.90;;;;;;5074227;28;20140;-65
2022/07/11 04:09:04;;;;;;;3.75;1.00;;;16.00;99.90;;;;;;5075526;28;20101;-68
2022/07/11 04:11:31;;;;;;;4.03;1.00;;;15.90;99.90;;;;;;5077594;28;20490;-65
2022/07/11 04:13:58;;;;;;;3.22;0.75;;;15.80;99.90;;;;;;5059752;28;20036;-69
2022/07/11 04:16:26;;;;;;;4.53;0.93;;;15.70;99.90;;;;;;5073332;28;20080;-68
2022/07/11 04:18:53;;;;;;;2.42;0.93;;;15.60;99.90;;;;;;5064994;28;20035;-68
2022/07/11 04:21:20;;;;;;;3.25;1.13;;;15.50;99.90;;;;;;5072693;28;20451;-68
2022/07/11 04:23:47;;;;;;;2.97;1.20;;;15.40;99.90;;;;;;5069410;28;20128;-64
2022/07/11 04:26:15;;;;;;;4.30;0.60;;;15.30;99.90;;;;;;5073681;28;20021;-66
2022/07/11 04:28:42;;;;;;;2.53;0.98;;;15.30;99.90;;;;;;5070890;28;20035;-64
2022/07/11 04:31:10;;;;;;;1.95;0.85;;;15.30;99.90;;;;;;5071168;28;20115;-66
2022/07/11 04:33:37;;;;;;;2.78;0.90;;;15.30;99.90;;;;;;5068491;28;20024;-67
2022/07/11 04:36:05;;;;;;;1.88;0.65;;;15.20;99.90;;;;;;5068811;28;20064;-66
2022/07/11 04:38:32;;;;;;;3.83;1.05;;;15.20;99.90;;;;;;5072907;28;20023;-64
2022/07/11 04:40:59;;;;;;;0.98;0.70;;;15.10;99.90;;;;;;5077009;28;20028;-65
2022/07/11 04:43:26;;;;;;;1.88;0.77;;;15.10;99.90;;;;;;5075978;28;20437;-66
2022/07/11 04:45:53;;;;;;;2.83;1.02;;;15.10;99.90;;;;;;5075582;28;20115;-66
2022/07/11 04:48:20;;;;;;;1.58;0.85;;;15.20;99.90;;;;;;5067551;28;20016;-66
2022/07/11 04:50:47;;;;;;;5.35;1.55;;;15.30;99.90;;;;;;5075516;28;20411;-66
2022/07/11 04:53:14;;;;;;;4.43;1.52;;;15.30;99.90;;;;;;4356238;28;10000731;-65
2022/07/11 04:55:41;;;;;;;3.42;1.65;;;15.40;99.90;;;;;;5069131;28;20045;-69
2022/07/11 04:58:09;;;;;;;7.30;1.52;;;15.50;99.90;;;;;;5069104;28;20086;-66
2022/07/11 05:00:36;;;;;;;3.10;1.45;;;15.50;99.90;;;;;;5067698;28;20024;-68
2022/07/11 05:03:04;;;;;;;3.65;0.85;;;15.50;99.90;;;;;;5066758;28;20021;-64
2022/07/11 05:05:32;;;;;;;2.10;1.15;;;15.60;99.90;;;;;;5069486;28;20024;-67
2022/07/11 05:07:59;;;;;;;3.33;1.40;;;15.60;99.90;;;;;;5069938;28;20025;-67
2022/07/11 05:10:26;;;;;;;4.40;1.73;;;15.60;99.90;;;;;;5068094;28;20090;-65
2022/07/11 05:12:53;;;;;;;3.35;1.60;;;15.60;99.90;;;;;;5054512;28;20425;-66
2022/07/11 05:15:20;;;;;;;4.65;1.65;;;15.50;99.90;;;;;;5078437;28;20020;-66
2022/07/11 05:17:48;;;;;;;3.90;1.20;;;15.50;99.90;;;;;;5076487;28;20023;-64
2022/07/11 05:20:15;;;;;;;4.03;1.40;;;15.50;99.90;;;;;;5073650;28;20059;-64
2022/07/11 05:22:42;;;;;;;4.07;2.00;;;15.50;99.90;;;;;;5074530;28;20056;-68
2022/07/11 05:25:09;;;;;;;1.83;1.20;;;15.50;99.90;;;;;;5080866;28;20024;-66
2022/07/11 05:27:37;;;;;;;1.98;1.17;;;15.50;99.90;;;;;;5078172;28;20041;-66
2022/07/11 05:30:04;;;;;;;1.83;1.33;;;15.60;99.90;;;;;;5079203;28;20028;-69
2022/07/11 05:32:31;;;;;;;3.30;1.15;;;15.60;99.90;;;;;;5076837;28;20432;-68
2022/07/11 05:35:00;;;;;;;4.95;1.92;;;15.60;99.90;;;;;;5074983;28;20048;-67
2022/07/11 05:37:27;;;;;;;2.03;1.38;;;15.70;99.90;;;;;;5057933;28;20390;-68
2022/07/11 05:39:55;;;;;;;2.97;1.77;;;15.70;99.90;;;;;;5075593;28;20077;-66
2022/07/11 05:42:23;;;;;;;3.00;1.05;;;15.60;99.90;;;;;;5076623;28;20028;-67
2022/07/11 05:44:50;;;;;;;2.83;1.20;;;15.50;99.90;;;;;;5080078;28;20028;-68
2022/07/11 05:47:18;;;;;;;3.33;1.60;;;15.50;99.90;;;;;;5075389;28;20029;-68
2022/07/11 05:49:46;;;;;;;3.30;1.35;;;15.40;99.90;;;;;;5053077;28;20024;-66
2022/07/11 05:52:13;;;;;;;4.00;2.60;;;15.30;99.90;;;;;;5077719;28;20594;-67
2022/07/11 05:54:41;;;;;;;3.33;1.80;;;15.40;99.90;;;;;;5075737;28;20425;-66
2022/07/11 05:57:08;;;;;;;2.50;1.20;;;15.40;99.90;;;;;;5056093;28;20403;-64
2022/07/11 05:59:37;;;;;;;5.50;1.05;;;15.40;99.90;;;;;;5071620;28;20077;-67
2022/07/11 06:02:05;;;;;;;5.28;1.10;;;15.30;99.90;;;;;;5072622;28;20089;-68
2022/07/11 06:04:36;;;;;;;4.72;2.78;;;15.20;99.90;;;;;;5073540;28;20069;-64
2022/07/11 06:07:04;;;;;;;4.45;3.45;;;15.10;99.90;;;;;;5074661;28;20055;-67
2022/07/11 06:09:31;;;;;;;2.85;1.50;;;15.10;99.90;;;;;;5072714;28;20085;-65
2022/07/11 06:11:59;;;;;;;4.30;1.95;;;15.00;99.90;;;;;;5055458;28;20703;-64
2022/07/11 06:14:26;;;;;;;6.22;3.35;;;14.80;99.90;;;;;;5067265;28;20028;-66
2022/07/11 06:16:54;;;;;;;6.03;3.28;;;14.60;99.90;;;;;;5070732;28;20012;-64
2022/07/11 06:19:21;;;;;;;3.92;2.63;;;14.50;99.90;;;;;;5072181;28;20027;-66
2022/07/11 06:21:49;;;;;;;3.38;2.85;;;14.50;99.90;;;;;;5075256;28;20024;-66
2022/07/11 06:24:16;;;;;;;7.65;4.28;;;14.40;99.90;;;;;;5072710;28;20107;-67
2022/07/11 06:26:43;;;;;;;8.15;3.50;;;14.40;99.90;;;;;;5076157;28;20023;-64
2022/07/11 06:29:10;;;;;;;5.95;2.78;;;14.30;99.90;;;;;;5074253;28;20025;-66
2022/07/11 06:31:38;;;;;;;5.85;1.98;;;14.20;99.90;;;;;;5077568;28;20024;-64
2022/07/11 06:34:06;;;;;;;4.43;1.50;;;14.10;99.90;;;;;;5076994;28;20038;-68
2022/07/11 06:36:33;;;;;;;7.93;1.90;;;13.90;99.90;;;;;;5067175;28;20431;-67
2022/07/11 06:39:00;;;;;;;3.20;1.52;;;13.80;99.90;;;;;;5063326;28;20028;-67
2022/07/11 06:41:28;;;;;;;3.28;2.40;;;13.80;99.90;;;;;;5071371;28;20138;-66
2022/07/11 06:43:55;;;;;;;7.40;3.25;;;13.70;99.90;;;;;;5074410;28;20017;-64
2022/07/11 06:46:26;;;;;;;9.43;2.60;;;13.70;99.90;;;;;;5074470;28;20115;-65
2022/07/11 06:48:54;;;;;;;4.85;1.98;;;13.70;99.90;;;;;;5073307;28;20024;-68
2022/07/11 06:51:22;;;;;;;3.55;2.05;;;13.70;99.90;;;;;;5059194;28;20027;-71
2022/07/11 06:53:51;;;;;;;5.38;2.50;;;13.60;99.90;;;;;;5071461;28;20097;-69
2022/07/11 06:56:19;;;;;;;6.22;4.60;;;13.50;99.90;;;;;;5064849;28;20040;-66
2022/07/11 06:58:46;;;;;;;12.48;7.80;;;13.50;99.90;;;;;;5065336;28;20260;-67
2022/07/11 07:01:13;;;;;;;6.05;3.65;;;13.30;99.90;;;;;;5078062;28;20542;-67
2022/07/11 07:03:41;;;;;;;4.70;2.42;;;13.10;99.90;;;;;;5072002;28;20125;-67
2022/07/11 07:06:09;;;;;;;4.60;2.15;;;13.00;99.90;;;;;;5071798;28;20838;-66
2022/07/11 07:08:36;;;;;;;7.35;5.07;;;12.90;99.90;;;;;;5069031;28;20028;-69
2022/07/11 07:11:03;;;;;;;5.65;3.38;;;12.80;99.90;;;;;;5075328;28;20083;-68
2022/07/11 07:13:31;;;;;;;6.00;3.85;;;12.60;99.90;;;;;;5071917;28;20463;-66
2022/07/11 07:15:58;;;;;;;8.43;5.25;;;12.60;99.90;;;;;;5074007;28;20024;-69
2022/07/11 07:18:26;;;;;;;8.18;4.85;;;12.60;99.90;;;;;;5041771;28;20047;-68
2022/07/11 07:20:53;;;;;;;8.65;4.05;;;12.50;99.90;;;;;;5064520;28;20089;-64
2022/07/11 07:23:21;;;;;;;9.88;4.45;;;12.40;99.90;;;;;;5073525;28;20157;-68
2022/07/11 07:25:48;;;;;;;8.73;3.90;;;12.50;99.90;;;;;;5024133;28;20452;-68
2022/07/11 07:28:15;;;;;;;6.53;2.70;;;12.50;99.90;;;;;;5021383;28;20037;-67
2022/07/11 07:30:42;;;;;;;7.05;3.63;;;12.40;99.90;;;;;;5024562;28;20041;-68
2022/07/11 07:33:12;;;;;;;5.45;2.80;;;12.50;99.90;;;;;;5024396;28;20457;-68
2022/07/11 07:35:39;;;;;;;7.95;3.05;;;12.40;99.90;;;;;;5023801;28;20124;-68
2022/07/11 07:38:07;;;;;;;9.85;4.43;;;12.30;99.90;;;;;;5029158;28;20045;-73
2022/07/11 07:40:34;;;;;;;9.88;4.47;;;12.20;99.90;;;;;;5034099;28;20029;-71
2022/07/11 07:43:01;;;;;;;12.27;4.07;;;12.10;99.90;;;;;;5027205;28;20021;-68
2022/07/11 07:45:29;;;;;;;22.27;13.63;;;12.10;99.90;;;;;;5028654;28;20152;-70
2022/07/11 07:47:56;;;;;;;18.98;13.93;;;12.10;99.90;;;;;;5030016;28;20029;-70
2022/07/11 07:50:23;;;;;;;17.38;12.18;;;12.00;99.90;;;;;;5028578;28;20029;-72
2022/07/11 07:52:50;;;;;;;11.90;7.50;;;11.90;99.90;;;;;;5030072;28;20064;-66
2022/07/11 07:55:18;;;;;;;13.90;7.80;;;11.80;99.90;;;;;;5028687;28;20507;-66
2022/07/11 07:57:45;;;;;;;10.07;7.45;;;11.80;99.90;;;;;;5032759;28;20049;-66
2022/07/11 08:03:05;;;;;;;12.15;5.25;;;11.60;99.90;;;;;;5043615;28;20549;-68
2022/07/11 08:05:32;;;;;;;9.68;6.72;;;11.50;99.90;;;;;;5071319;28;20484;-67
2022/07/11 08:07:59;;;;;;;8.55;5.47;;;11.50;99.90;;;;;;5070813;28;20024;-68
2022/07/11 08:10:27;;;;;;;8.98;3.97;;;11.40;99.90;;;;;;5070144;28;20028;-66
2022/07/11 08:12:54;;;;;;;8.88;3.83;;;11.40;99.90;;;;;;5068898;28;20126;-68
2022/07/11 08:15:22;;;;;;;8.32;3.70;;;11.40;99.90;;;;;;5068936;28;20028;-68
2022/07/11 08:17:49;;;;;;;7.70;3.13;;;11.40;99.90;;;;;;5070174;28;20111;-69
2022/07/11 08:20:16;;;;;;;11.40;3.22;;;11.40;99.90;;;;;;5066285;28;20079;-67
2022/07/11 08:22:43;;;;;;;9.98;3.00;;;11.30;99.90;;;;;;5066158;28;20103;-69
2022/07/11 08:25:11;;;;;;;9.07;3.28;;;11.30;99.90;;;;;;5067452;28;20757;-74
2022/07/11 08:27:38;;;;;;;9.60;3.47;;;11.30;99.90;;;;;;5069088;28;20858;-69
2022/07/11 08:30:07;;;;;;;13.45;4.05;;;11.40;99.90;;;;;;5063115;28;20089;-67
2022/07/11 08:32:39;;;;;;;11.73;4.28;;;11.40;99.90;;;;;;5066950;28;20036;-70
2022/07/11 08:35:07;;;;;;;8.43;3.90;;;11.40;99.90;;;;;;5066208;28;20499;-69
2022/07/11 08:37:34;;;;;;;8.00;3.45;;;11.30;99.90;;;;;;5064625;28;20300;-72
2022/07/11 08:40:01;;;;;;;9.75;3.17;;;11.20;99.90;;;;;;5044265;28;20028;-72
2022/07/11 08:42:30;;;;;;;6.30;2.90;;;11.20;99.90;;;;;;5066042;28;20347;-72
2022/07/11 08:44:59;;;;;;;8.32;3.38;;;11.20;99.90;;;;;;5068872;28;20027;-74
2022/07/11 08:47:26;;;;;;;8.52;3.35;;;11.20;99.90;;;;;;5064040;28;20497;-72
2022/07/11 08:49:53;;;;;;;7.43;3.40;;;11.20;99.90;;;;;;5067306;28;20204;-69
2022/07/11 08:52:22;;;;;;;5.82;3.03;;;11.10;99.90;;;;;;5066619;28;20054;-69
2022/07/11 08:54:49;;;;;;;8.18;3.95;;;11.10;99.90;;;;;;5062680;28;20028;-73
2022/07/11 08:57:16;;;;;;;12.10;4.22;;;11.10;99.90;;;;;;5068284;28;20021;-67
2022/07/11 08:59:46;;;;;;;9.68;3.33;;;11.00;99.90;;;;;;5065032;28;20040;-71
2022/07/11 09:02:14;;;;;;;13.10;3.88;;;11.00;99.90;;;;;;5065114;28;20156;-68
2022/07/11 09:04:41;;;;;;;9.15;4.57;;;10.90;99.90;;;;;;5070868;28;20020;-72
2022/07/11 09:07:09;;;;;;;14.18;4.00;;;10.80;99.90;;;;;;5066604;28;20031;-66
2022/07/11 09:09:36;;;;;;;8.43;3.60;;;10.70;99.90;;;;;;5060918;28;20367;-71
2022/07/11 09:12:14;;;;;;;6.10;3.60;;;10.60;99.90;;;;;;5067136;28;20093;-67
2022/07/11 09:14:51;;;;;;;7.05;3.40;;;10.60;99.90;;;;;;5065739;28;20380;-70
2022/07/11 09:17:28;;;;;;;7.03;3.00;;;10.50;99.90;;;;;;5066863;28;20061;-68
2022/07/11 09:19:56;;;;;;;13.15;4.53;;;10.40;99.90;;;;;;5063516;28;20465;-68
2022/07/11 09:25:21;;;;;;;8.35;3.65;;;10.30;99.90;;;;;;5065486;28;20676;-67
2022/07/11 09:28:01;;;;;;;12.82;4.78;;;10.30;99.90;;;;;;5065978;28;20524;-69
2022/07/11 09:30:35;;;;;;;17.38;5.07;;;10.30;99.90;;;;;;5066145;28;20055;-65
2022/07/11 09:33:05;;;;;;;13.30;4.95;;;10.30;99.90;;;;;;5063034;28;20033;-67
2022/07/11 09:35:38;;;;;;;9.35;5.40;;;10.40;99.90;;;;;;5064867;28;20021;-66
2022/07/11 09:38:08;;;;;;;11.20;5.25;;;10.30;99.90;;;;;;5063065;28;20032;-67
2022/07/11 09:40:36;;;;;;;11.27;4.88;;;10.30;99.90;;;;;;5065925;28;20402;-68
2022/07/11 09:43:05;;;;;;;7.88;4.28;;;10.30;99.90;;;;;;5068589;28;20028;-66
2022/07/11 09:45:34;;;;;;;12.27;5.00;;;10.20;99.90;;;;;;5064478;28;20032;-70
2022/07/11 09:48:14;;;;;;;10.85;4.97;;;10.20;99.90;;;;;;5063406;28;20028;-69
2022/07/11 09:50:56;;;;;;;11.20;4.90;;;10.20;99.90;;;;;;5066319;28;20035;-67
2022/07/11 09:53:23;;;;;;;10.98;5.18;;;10.20;99.90;;;;;;5067016;28;20067;-66
2022/07/11 09:55:52;;;;;;;11.70;5.55;;;10.10;99.90;;;;;;5064378;28;20548;-67
2022/07/11 09:58:23;;;;;;;12.30;6.03;;;10.10;99.90;;;;;;5068625;28;20036;-66
2022/07/11 10:00:52;;;;;;;14.73;7.35;;;10.10;99.90;;;;;;5070805;28;20524;-70
2022/07/11 10:03:25;;;;;;;13.85;7.32;;;10.20;99.90;;;;;;5049935;28;20472;-70
2022/07/11 10:05:52;;;;;;;11.23;7.55;;;10.30;99.90;;;;;;5054001;28;20441;-67
2022/07/11 10:08:21;;;;;;;12.68;7.43;;;10.30;99.90;;;;;;5070673;28;20114;-68
2022/07/11 10:10:49;;;;;;;16.08;8.13;;;10.30;99.90;;;;;;5071591;28;20060;-69
2022/07/11 10:13:17;;;;;;;16.58;9.93;;;10.20;99.90;;;;;;5050597;28;20452;-69
2022/07/11 10:15:47;;;;;;;20.88;12.25;;;10.20;99.90;;;;;;5067476;28;20029;-67
2022/07/11 10:18:54;;;;;;;16.25;7.82;;;10.20;99.90;;;;;;5020891;28;20207;-67
2022/07/11 10:21:36;;;;;;;12.57;6.70;;;10.40;99.90;;;;;;5019513;28;20705;-66
2022/07/11 10:24:07;;;;;;;14.45;7.95;;;10.60;99.90;;;;;;5024777;28;20060;-68
2022/07/11 10:26:41;;;;;;;14.35;9.88;;;10.70;99.90;;;;;;5024317;28;20017;-65
2022/07/11 10:29:23;;;;;;;11.38;7.40;;;10.60;99.90;;;;;;5025009;28;20284;-67
2022/07/11 10:32:10;;;;;;;16.48;8.70;;;10.70;99.90;;;;;;5025791;28;20481;-68
2022/07/11 10:34:38;;;;;;;11.80;5.90;;;10.70;99.90;;;;;;5020374;28;20526;-65
2022/07/11 10:37:08;;;;;;;13.90;6.25;;;10.70;99.90;;;;;;5021702;28;20502;-66
2022/07/11 10:39:37;;;;;;;15.75;9.15;;;10.70;99.90;;;;;;5021862;28;20048;-67
2022/07/11 10:42:09;;;;;;;13.63;6.70;;;10.80;99.90;;;;;;5022508;28;20106;-65
2022/07/11 10:44:51;;;;;;;11.90;7.68;;;10.70;99.90;;;;;;5028603;28;20029;-65
2022/07/11 10:47:51;;;;;;;18.13;11.23;;;10.60;99.90;;;;;;5024797;28;20034;-66
2022/07/11 10:50:40;;;;;;;21.75;16.40;;;10.60;99.90;;;;;;4911979;29;20040;-64
2022/07/11 10:53:19;;;;;;;11.65;6.82;;;10.60;99.90;;;;;;4911454;29;20044;-65
2022/07/11 10:56:24;;;;;;;14.05;6.00;;;10.60;99.90;;;;;;4915604;29;20044;-66
2022/07/11 10:59:09;;;;;;;10.55;5.47;;;10.60;99.90;;;;;;4899241;29;20289;-65
2022/07/11 11:01:56;;;;;;;8.70;6.18;;;10.60;99.90;;;;;;4907072;29;20051;-67
2022/07/11 11:05:01;;;;;;;9.45;5.75;;;10.50;99.90;;;;;;4936982;29;20039;-66
2022/07/11 11:07:41;;;;;;;13.45;6.93;;;10.50;99.90;;;;;;4938146;28;20094;-66
2022/07/11 11:10:33;;;;;;;11.93;6.88;;;10.50;99.90;;;;;;4940023;29;20256;-67
2022/07/11 11:13:07;;;;;;;11.50;6.10;;;10.40;99.90;;;;;;4939794;29;20345;-64
2022/07/11 11:15:40;;;;;;;10.60;6.45;;;10.40;99.90;;;;;;4938978;29;20031;-66
2022/07/11 11:18:25;;;;;;;11.98;5.80;;;10.30;99.90;;;;;;4939255;29;20035;-65
2022/07/11 11:21:01;;;;;;;13.27;5.97;;;10.20;99.90;;;;;;4938927;29;20427;-65
2022/07/11 11:23:39;;;;;;;8.13;5.30;;;10.10;99.90;;;;;;4940674;29;20104;-66
2022/07/11 11:26:11;;;;;;;9.50;6.05;;;10.00;99.90;;;;;;4958155;28;20049;-65
2022/07/11 11:28:54;;;;;;;11.57;6.35;;;10.10;99.90;;;;;;4980332;28;20111;-65
2022/07/11 11:31:21;;;;;;;12.38;5.70;;;10.00;99.90;;;;;;5066489;28;20036;-66
2022/07/11 11:33:49;;;;;;;8.98;5.07;;;9.90;99.90;;;;;;5067972;28;20032;-67
2022/07/11 11:36:23;;;;;;;12.10;5.22;;;9.90;99.90;;;;;;5068685;28;20043;-65
2022/07/11 11:38:52;;;;;;;8.27;5.03;;;9.90;99.90;;;;;;5070165;28;20032;-67
2022/07/11 11:41:37;;;;;;;8.00;4.35;;;9.90;99.90;;;;;;5068441;28;20025;-64
2022/07/11 11:44:04;;;;;;;9.23;5.22;;;10.00;99.90;;;;;;5071525;28;20056;-67
2022/07/11 11:46:35;;;;;;;12.30;5.18;;;10.00;99.90;;;;;;5063719;28;20039;-66
2022/07/11 11:49:04;;;;;;;7.68;4.68;;;10.10;99.90;;;;;;5062601;28;20043;-67
2022/07/11 11:51:32;;;;;;;8.77;5.18;;;10.00;99.90;;;;;;5061521;28;20028;-65
2022/07/11 11:54:02;;;;;;;9.38;4.57;;;10.00;99.90;;;;;;5063058;28;20036;-63
2022/07/11 11:56:40;;;;;;;7.70;3.58;;;9.90;99.90;;;;;;5066196;28;20045;-66
2022/07/11 11:59:15;;;;;;;7.60;3.50;;;9.90;99.90;;;;;;5071232;28;20494;-69
2022/07/11 12:01:45;;;;;;;6.40;2.88;;;9.80;99.90;;;;;;5069906;28;20025;-66
2022/07/11 12:04:14;;;;;;;4.72;2.67;;;9.90;99.90;;;;;;5073410;28;20502;-68
2022/07/11 12:06:46;;;;;;;7.50;2.22;;;10.00;99.90;;;;;;5062599;28;20422;-67
2022/07/11 12:09:19;;;;;;;3.97;2.38;;;10.00;99.90;;;;;;5054822;28;20021;-67
2022/07/11 12:11:47;;;;;;;;;;;10.00;99.90;;;;;;5053331;28;20152;-67
2022/07/11 12:14:16;;;;;;;5.55;2.40;;;10.10;99.90;;;;;;5053075;28;19905;-68
2022/07/11 12:16:49;;;;;;;4.57;2.25;;;10.10;99.90;;;;;;5050111;28;20024;-67
2022/07/11 12:19:19;;;;;;;7.38;3.47;;;10.00;99.90;;;;;;5052954;28;20017;-67
2022/07/11 12:21:54;;;;;;;6.70;2.65;;;10.00;99.90;;;;;;5053023;28;20104;-68
2022/07/11 12:24:28;;;;;;;6.05;3.15;;;9.90;99.90;;;;;;5050814;28;20028;-68
2022/07/11 12:26:56;;;;;;;6.30;3.22;;;9.80;99.90;;;;;;5054478;28;20051;-69
2022/07/11 12:29:27;;;;;;;6.00;2.80;;;9.70;99.90;;;;;;5049217;28;20017;-70
2022/07/11 12:31:59;;;;;;;5.05;3.20;;;9.80;99.90;;;;;;5050589;28;20041;-71
2022/07/11 12:34:35;;;;;;;10.48;3.85;;;9.70;99.90;;;;;;5057138;28;20025;-67
2022/07/11 12:37:04;;;;;;;7.60;2.72;;;9.60;99.90;;;;;;4704866;28;9999905;-67
2022/07/11 12:39:33;;;;;;;5.55;3.22;;;9.50;99.90;;;;;;5051360;28;20032;-69
2022/07/11 12:42:20;;;;;;;8.15;4.03;;;9.40;99.90;;;;;;5052432;28;20020;-67
2022/07/11 12:44:59;;;;;;;8.48;3.72;;;9.30;99.90;;;;;;5052938;28;20535;-66
2022/07/11 12:47:28;;;;;;;3.65;2.85;;;9.20;99.90;;;;;;5050331;28;20025;-67
2022/07/11 12:49:56;;;;;;;6.70;3.20;;;9.20;99.90;;;;;;5050393;28;20036;-66
2022/07/11 12:52:24;;;;;;;5.13;2.92;;;9.20;99.90;;;;;;5050272;28;20025;-70
2022/07/11 12:55:00;;;;;;;7.65;2.55;;;9.10;99.90;;;;;;5051215;28;20101;-67
2022/07/11 12:57:27;;;;;;;5.50;2.47;;;9.10;99.90;;;;;;5049789;28;20033;-67
2022/07/11 12:59:54;;;;;;;7.63;2.70;;;9.10;99.90;;;;;;5049817;28;20456;-66
2022/07/11 13:02:29;;;;;;;5.00;2.50;;;9.00;99.90;;;;;;5050779;28;20482;-67